sensor_id;sensor_type;location;lat;lon;timestamp;temperature;humidity
52575;DHT22;38468;48.114;-1.684;2023-01-20T00:01:22;3.00;80.80
52575;DHT22;38468;48.114;-1.684;2023-01-20T00:03:23;2.90;80.80
52575;DHT22;38468;48.114;-1.684;2023-01-20T00:05:24;2.90;80.90
52575;DHT22;38468;48.114;-1.684;2023-01-20T00:07:27;2.90;80.90
52575;DHT22;38468;48.114;-1.684;2023-01-20T00:09:28;2.90;80.90
52575;DHT22;38468;48.114;-1.684;2023-01-20T00:11:32;2.80;80.90
52575;DHT22;38468;48.114;-1.684;2023-01-20T00:13:37;2.80;80.80
52575;DHT22;38468;48.114;-1.684;2023-01-20T00:15:38;2.80;81.00
52575;DHT22;38468;48.114;-1.684;2023-01-20T00:17:39;2.80;81.10
52575;DHT22;38468;48.114;-1.684;2023-01-20T00:19:40;2.80;81.00
52575;DHT22;38468;48.114;-1.684;2023-01-20T00:21:41;2.80;80.90
52575;DHT22;38468;48.114;-1.684;2023-01-20T00:23:43;2.70;80.70
52575;DHT22;38468;48.114;-1.684;2023-01-20T00:25:44;2.80;81.10
52575;DHT22;38468;48.114;-1.684;2023-01-20T00:27:45;2.80;80.90
52575;DHT22;38468;48.114;-1.684;2023-01-20T00:29:46;2.80;80.90
52575;DHT22;38468;48.114;-1.684;2023-01-20T00:31:47;2.80;80.90
52575;DHT22;38468;48.114;-1.684;2023-01-20T00:33:51;2.70;80.90
52575;DHT22;38468;48.114;-1.684;2023-01-20T00:35:54;2.70;81.10
52575;DHT22;38468;48.114;-1.684;2023-01-20T00:37:55;2.70;81.20
52575;DHT22;38468;48.114;-1.684;2023-01-20T00:39:56;2.60;81.10
52575;DHT22;38468;48.114;-1.684;2023-01-20T00:42:00;2.60;81.20
52575;DHT22;38468;48.114;-1.684;2023-01-20T00:44:00;2.70;81.30
52575;DHT22;38468;48.114;-1.684;2023-01-20T00:46:02;2.70;81.20
52575;DHT22;38468;48.114;-1.684;2023-01-20T00:48:03;2.70;81.00
52575;DHT22;38468;48.114;-1.684;2023-01-20T00:50:04;2.60;81.00
52575;DHT22;38468;48.114;-1.684;2023-01-20T00:52:06;2.60;81.10
52575;DHT22;38468;48.114;-1.684;2023-01-20T00:54:06;2.60;81.00
52575;DHT22;38468;48.114;-1.684;2023-01-20T00:56:07;2.60;81.00
52575;DHT22;38468;48.114;-1.684;2023-01-20T00:58:09;2.60;81.10
52575;DHT22;38468;48.114;-1.684;2023-01-20T01:00:10;2.70;81.10
52575;DHT22;38468;48.114;-1.684;2023-01-20T01:02:12;2.60;80.70
52575;DHT22;38468;48.114;-1.684;2023-01-20T01:04:13;2.60;80.90
52575;DHT22;38468;48.114;-1.684;2023-01-20T01:06:16;2.60;80.90
52575;DHT22;38468;48.114;-1.684;2023-01-20T01:08:16;2.70;80.90
52575;DHT22;38468;48.114;-1.684;2023-01-20T01:10:18;2.70;80.80
52575;DHT22;38468;48.114;-1.684;2023-01-20T01:12:19;2.60;80.80
52575;DHT22;38468;48.114;-1.684;2023-01-20T01:14:20;2.60;81.00
52575;DHT22;38468;48.114;-1.684;2023-01-20T01:16:20;2.60;81.00
52575;DHT22;38468;48.114;-1.684;2023-01-20T01:18:21;2.60;81.00
52575;DHT22;38468;48.114;-1.684;2023-01-20T01:20:22;2.70;80.90
52575;DHT22;38468;48.114;-1.684;2023-01-20T01:22:23;2.60;80.90
52575;DHT22;38468;48.114;-1.684;2023-01-20T01:24:24;2.50;81.00
52575;DHT22;38468;48.114;-1.684;2023-01-20T01:26:25;2.60;81.10
52575;DHT22;38468;48.114;-1.684;2023-01-20T01:28:26;2.50;81.10
52575;DHT22;38468;48.114;-1.684;2023-01-20T01:30:29;2.40;81.20
52575;DHT22;38468;48.114;-1.684;2023-01-20T01:32:30;2.40;81.30
52575;DHT22;38468;48.114;-1.684;2023-01-20T01:34:31;2.50;81.50
52575;DHT22;38468;48.114;-1.684;2023-01-20T01:36:33;2.60;81.50
52575;DHT22;38468;48.114;-1.684;2023-01-20T01:38:34;2.60;81.50
52575;DHT22;38468;48.114;-1.684;2023-01-20T01:40:35;2.60;81.30
52575;DHT22;38468;48.114;-1.684;2023-01-20T01:42:36;2.50;81.20
52575;DHT22;38468;48.114;-1.684;2023-01-20T01:45:01;2.50;81.30
52575;DHT22;38468;48.114;-1.684;2023-01-20T01:46:59;2.50;81.20
52575;DHT22;38468;48.114;-1.684;2023-01-20T01:49:12;2.50;81.20
52575;DHT22;38468;48.114;-1.684;2023-01-20T01:51:19;2.50;81.30
52575;DHT22;38468;48.114;-1.684;2023-01-20T01:53:23;2.50;81.30
52575;DHT22;38468;48.114;-1.684;2023-01-20T01:55:31;2.50;81.10
52575;DHT22;38468;48.114;-1.684;2023-01-20T01:57:34;2.40;81.30
52575;DHT22;38468;48.114;-1.684;2023-01-20T01:59:36;2.50;81.30
52575;DHT22;38468;48.114;-1.684;2023-01-20T02:01:40;2.60;81.30
52575;DHT22;38468;48.114;-1.684;2023-01-20T02:03:53;2.60;81.20
52575;DHT22;38468;48.114;-1.684;2023-01-20T02:05:56;2.60;81.30
52575;DHT22;38468;48.114;-1.684;2023-01-20T02:07:57;2.50;81.00
52575;DHT22;38468;48.114;-1.684;2023-01-20T02:10:00;2.40;81.10
52575;DHT22;38468;48.114;-1.684;2023-01-20T02:12:04;2.30;81.30
52575;DHT22;38468;48.114;-1.684;2023-01-20T02:14:06;2.30;81.60
52575;DHT22;38468;48.114;-1.684;2023-01-20T02:16:30;2.30;81.80
52575;DHT22;38468;48.114;-1.684;2023-01-20T02:18:49;2.30;81.80
52575;DHT22;38468;48.114;-1.684;2023-01-20T02:28:23;2.20;82.10
52575;DHT22;38468;48.114;-1.684;2023-01-20T02:34:57;2.20;81.60
52575;DHT22;38468;48.114;-1.684;2023-01-20T02:37:05;2.20;81.80
52575;DHT22;38468;48.114;-1.684;2023-01-20T02:39:25;2.20;81.80
52575;DHT22;38468;48.114;-1.684;2023-01-20T02:41:52;2.30;81.70
52575;DHT22;38468;48.114;-1.684;2023-01-20T02:44:15;2.30;81.70
52575;DHT22;38468;48.114;-1.684;2023-01-20T02:48:49;2.20;81.70
52575;DHT22;38468;48.114;-1.684;2023-01-20T02:53:04;2.20;82.00
52575;DHT22;38468;48.114;-1.684;2023-01-20T02:55:06;2.20;81.80
52575;DHT22;38468;48.114;-1.684;2023-01-20T02:57:11;2.30;82.00
52575;DHT22;38468;48.114;-1.684;2023-01-20T02:59:17;2.30;82.00
52575;DHT22;38468;48.114;-1.684;2023-01-20T03:01:30;2.30;81.90
52575;DHT22;38468;48.114;-1.684;2023-01-20T03:03:34;2.30;81.90
52575;DHT22;38468;48.114;-1.684;2023-01-20T03:05:41;2.20;81.70
52575;DHT22;38468;48.114;-1.684;2023-01-20T03:07:45;2.20;81.60
52575;DHT22;38468;48.114;-1.684;2023-01-20T03:09:50;2.20;81.80
52575;DHT22;38468;48.114;-1.684;2023-01-20T03:11:57;2.20;81.80
52575;DHT22;38468;48.114;-1.684;2023-01-20T03:14:11;2.20;81.70
52575;DHT22;38468;48.114;-1.684;2023-01-20T03:16:21;2.20;81.80
52575;DHT22;38468;48.114;-1.684;2023-01-20T03:18:24;2.20;81.70
52575;DHT22;38468;48.114;-1.684;2023-01-20T03:20:25;2.10;81.80
52575;DHT22;38468;48.114;-1.684;2023-01-20T03:22:26;2.10;81.80
52575;DHT22;38468;48.114;-1.684;2023-01-20T03:24:28;2.10;81.90
52575;DHT22;38468;48.114;-1.684;2023-01-20T03:26:30;2.20;82.20
52575;DHT22;38468;48.114;-1.684;2023-01-20T03:28:31;2.30;82.20
52575;DHT22;38468;48.114;-1.684;2023-01-20T03:30:31;2.30;82.00
52575;DHT22;38468;48.114;-1.684;2023-01-20T03:32:32;2.20;81.90
52575;DHT22;38468;48.114;-1.684;2023-01-20T03:34:34;2.30;81.90
52575;DHT22;38468;48.114;-1.684;2023-01-20T03:36:36;2.30;81.80
52575;DHT22;38468;48.114;-1.684;2023-01-20T03:38:37;2.40;81.70
52575;DHT22;38468;48.114;-1.684;2023-01-20T03:40:45;2.40;81.70
52575;DHT22;38468;48.114;-1.684;2023-01-20T03:43:00;2.40;81.70
52575;DHT22;38468;48.114;-1.684;2023-01-20T03:45:07;2.40;81.50
52575;DHT22;38468;48.114;-1.684;2023-01-20T03:47:24;2.50;81.30
52575;DHT22;38468;48.114;-1.684;2023-01-20T03:51:45;2.40;80.90
52575;DHT22;38468;48.114;-1.684;2023-01-20T03:54:02;2.30;81.30
52575;DHT22;38468;48.114;-1.684;2023-01-20T03:56:10;2.20;81.50
52575;DHT22;38468;48.114;-1.684;2023-01-20T03:58:19;2.20;81.60
52575;DHT22;38468;48.114;-1.684;2023-01-20T04:00:23;2.30;81.50
52575;DHT22;38468;48.114;-1.684;2023-01-20T04:02:26;2.20;81.40
52575;DHT22;38468;48.114;-1.684;2023-01-20T04:04:27;2.20;81.50
52575;DHT22;38468;48.114;-1.684;2023-01-20T04:06:29;2.30;81.50
52575;DHT22;38468;48.114;-1.684;2023-01-20T04:08:33;2.30;81.40
52575;DHT22;38468;48.114;-1.684;2023-01-20T04:10:38;2.20;81.40
52575;DHT22;38468;48.114;-1.684;2023-01-20T04:12:39;2.30;81.50
52575;DHT22;38468;48.114;-1.684;2023-01-20T04:14:40;2.30;81.40
52575;DHT22;38468;48.114;-1.684;2023-01-20T04:16:41;2.40;81.50
52575;DHT22;38468;48.114;-1.684;2023-01-20T04:18:46;2.40;81.30
52575;DHT22;38468;48.114;-1.684;2023-01-20T04:20:50;2.40;81.20
52575;DHT22;38468;48.114;-1.684;2023-01-20T04:22:55;2.50;81.20
52575;DHT22;38468;48.114;-1.684;2023-01-20T04:25:02;2.50;81.10
52575;DHT22;38468;48.114;-1.684;2023-01-20T04:27:07;2.50;81.00
52575;DHT22;38468;48.114;-1.684;2023-01-20T04:29:08;2.40;80.70
52575;DHT22;38468;48.114;-1.684;2023-01-20T04:31:09;2.40;80.90
52575;DHT22;38468;48.114;-1.684;2023-01-20T04:33:11;2.40;81.00
52575;DHT22;38468;48.114;-1.684;2023-01-20T04:35:14;2.40;81.20
52575;DHT22;38468;48.114;-1.684;2023-01-20T04:37:15;2.40;81.40
52575;DHT22;38468;48.114;-1.684;2023-01-20T04:39:15;2.40;81.40
52575;DHT22;38468;48.114;-1.684;2023-01-20T04:41:16;2.50;81.30
52575;DHT22;38468;48.114;-1.684;2023-01-20T04:43:16;2.40;81.20
52575;DHT22;38468;48.114;-1.684;2023-01-20T04:45:17;2.50;81.30
52575;DHT22;38468;48.114;-1.684;2023-01-20T04:47:23;2.60;81.20
52575;DHT22;38468;48.114;-1.684;2023-01-20T04:49:24;2.70;81.00
52575;DHT22;38468;48.114;-1.684;2023-01-20T04:51:25;2.60;80.90
52575;DHT22;38468;48.114;-1.684;2023-01-20T04:53:25;2.60;80.90
52575;DHT22;38468;48.114;-1.684;2023-01-20T04:55:26;2.50;80.60
52575;DHT22;38468;48.114;-1.684;2023-01-20T04:57:27;2.50;80.60
52575;DHT22;38468;48.114;-1.684;2023-01-20T04:59:28;2.50;80.60
52575;DHT22;38468;48.114;-1.684;2023-01-20T05:01:28;2.50;80.60
52575;DHT22;38468;48.114;-1.684;2023-01-20T05:03:29;2.40;80.70
52575;DHT22;38468;48.114;-1.684;2023-01-20T05:05:30;2.40;80.80
52575;DHT22;38468;48.114;-1.684;2023-01-20T05:07:30;2.40;80.80
52575;DHT22;38468;48.114;-1.684;2023-01-20T05:09:31;2.30;80.90
52575;DHT22;38468;48.114;-1.684;2023-01-20T05:11:31;2.20;81.10
52575;DHT22;38468;48.114;-1.684;2023-01-20T05:13:32;2.10;81.30
52575;DHT22;38468;48.114;-1.684;2023-01-20T05:15:39;2.10;81.50
52575;DHT22;38468;48.114;-1.684;2023-01-20T05:17:39;2.10;81.70
52575;DHT22;38468;48.114;-1.684;2023-01-20T05:19:40;2.10;81.80
52575;DHT22;38468;48.114;-1.684;2023-01-20T05:21:42;2.10;81.80
52575;DHT22;38468;48.114;-1.684;2023-01-20T05:23:43;2.20;81.60
52575;DHT22;38468;48.114;-1.684;2023-01-20T05:25:52;2.10;81.70
52575;DHT22;38468;48.114;-1.684;2023-01-20T05:27:52;2.30;81.70
52575;DHT22;38468;48.114;-1.684;2023-01-20T05:29:53;2.20;81.50
52575;DHT22;38468;48.114;-1.684;2023-01-20T05:31:54;2.20;81.60
52575;DHT22;38468;48.114;-1.684;2023-01-20T05:33:54;2.30;81.60
52575;DHT22;38468;48.114;-1.684;2023-01-20T05:35:55;2.30;81.50
52575;DHT22;38468;48.114;-1.684;2023-01-20T05:37:56;2.30;81.50
52575;DHT22;38468;48.114;-1.684;2023-01-20T05:39:56;2.30;81.50
52575;DHT22;38468;48.114;-1.684;2023-01-20T05:41:57;2.30;81.50
52575;DHT22;38468;48.114;-1.684;2023-01-20T05:43:57;2.30;81.30
52575;DHT22;38468;48.114;-1.684;2023-01-20T05:45:58;2.20;81.20
52575;DHT22;38468;48.114;-1.684;2023-01-20T05:47:59;2.30;81.30
52575;DHT22;38468;48.114;-1.684;2023-01-20T05:50:00;2.30;81.20
52575;DHT22;38468;48.114;-1.684;2023-01-20T05:52:01;2.30;81.20
52575;DHT22;38468;48.114;-1.684;2023-01-20T05:54:01;2.30;81.30
52575;DHT22;38468;48.114;-1.684;2023-01-20T05:56:04;2.20;81.30
52575;DHT22;38468;48.114;-1.684;2023-01-20T05:58:05;2.10;81.10
52575;DHT22;38468;48.114;-1.684;2023-01-20T06:00:07;2.10;81.30
52575;DHT22;38468;48.114;-1.684;2023-01-20T06:02:08;2.20;81.30
52575;DHT22;38468;48.114;-1.684;2023-01-20T06:04:09;2.20;81.20
52575;DHT22;38468;48.114;-1.684;2023-01-20T06:06:10;2.20;81.00
52575;DHT22;38468;48.114;-1.684;2023-01-20T06:08:17;2.20;81.20
52575;DHT22;38468;48.114;-1.684;2023-01-20T06:10:17;2.20;81.10
52575;DHT22;38468;48.114;-1.684;2023-01-20T06:12:18;2.20;81.10
52575;DHT22;38468;48.114;-1.684;2023-01-20T06:14:18;2.20;80.90
52575;DHT22;38468;48.114;-1.684;2023-01-20T06:16:19;2.20;80.90
52575;DHT22;38468;48.114;-1.684;2023-01-20T06:18:21;2.10;80.80
52575;DHT22;38468;48.114;-1.684;2023-01-20T06:20:22;2.00;80.90
52575;DHT22;38468;48.114;-1.684;2023-01-20T06:22:23;1.90;81.20
52575;DHT22;38468;48.114;-1.684;2023-01-20T06:24:23;1.80;81.40
52575;DHT22;38468;48.114;-1.684;2023-01-20T06:26:24;1.70;81.90
52575;DHT22;38468;48.114;-1.684;2023-01-20T06:28:25;1.60;82.20
52575;DHT22;38468;48.114;-1.684;2023-01-20T06:30:25;1.60;82.40
52575;DHT22;38468;48.114;-1.684;2023-01-20T06:32:26;1.70;82.60
52575;DHT22;38468;48.114;-1.684;2023-01-20T06:34:27;1.80;82.50
52575;DHT22;38468;48.114;-1.684;2023-01-20T06:36:27;1.80;82.40
52575;DHT22;38468;48.114;-1.684;2023-01-20T06:38:30;1.90;82.20
52575;DHT22;38468;48.114;-1.684;2023-01-20T06:40:30;1.90;82.20
52575;DHT22;38468;48.114;-1.684;2023-01-20T06:42:31;1.90;82.30
52575;DHT22;38468;48.114;-1.684;2023-01-20T06:44:32;1.90;82.10
52575;DHT22;38468;48.114;-1.684;2023-01-20T06:46:35;1.90;82.00
52575;DHT22;38468;48.114;-1.684;2023-01-20T06:48:36;1.90;81.90
52575;DHT22;38468;48.114;-1.684;2023-01-20T06:50:37;1.90;81.90
52575;DHT22;38468;48.114;-1.684;2023-01-20T06:52:37;1.90;81.80
52575;DHT22;38468;48.114;-1.684;2023-01-20T06:54:38;1.90;81.80
52575;DHT22;38468;48.114;-1.684;2023-01-20T06:56:38;1.90;81.90
52575;DHT22;38468;48.114;-1.684;2023-01-20T06:58:40;2.00;81.60
52575;DHT22;38468;48.114;-1.684;2023-01-20T07:00:40;1.90;81.90
52575;DHT22;38468;48.114;-1.684;2023-01-20T07:02:46;2.10;82.10
52575;DHT22;38468;48.114;-1.684;2023-01-20T07:04:50;2.10;82.00
52575;DHT22;38468;48.114;-1.684;2023-01-20T07:06:51;1.90;81.40
52575;DHT22;38468;48.114;-1.684;2023-01-20T07:08:52;2.00;81.90
52575;DHT22;38468;48.114;-1.684;2023-01-20T07:10:52;2.10;81.90
52575;DHT22;38468;48.114;-1.684;2023-01-20T07:12:53;2.10;81.80
52575;DHT22;38468;48.114;-1.684;2023-01-20T07:14:53;2.20;81.70
52575;DHT22;38468;48.114;-1.684;2023-01-20T07:16:54;2.20;81.60
52575;DHT22;38468;48.114;-1.684;2023-01-20T07:18:55;2.30;81.70
52575;DHT22;38468;48.114;-1.684;2023-01-20T07:20:56;2.40;81.60
52575;DHT22;38468;48.114;-1.684;2023-01-20T07:23:00;2.40;81.60
52575;DHT22;38468;48.114;-1.684;2023-01-20T07:25:01;2.40;81.50
52575;DHT22;38468;48.114;-1.684;2023-01-20T07:27:02;2.40;81.40
52575;DHT22;38468;48.114;-1.684;2023-01-20T07:29:03;2.40;81.40
52575;DHT22;38468;48.114;-1.684;2023-01-20T07:31:05;2.40;81.10
52575;DHT22;38468;48.114;-1.684;2023-01-20T07:33:05;2.50;80.90
52575;DHT22;38468;48.114;-1.684;2023-01-20T07:35:06;2.50;81.00
52575;DHT22;38468;48.114;-1.684;2023-01-20T07:37:07;2.60;80.90
52575;DHT22;38468;48.114;-1.684;2023-01-20T07:39:09;2.70;80.90
52575;DHT22;38468;48.114;-1.684;2023-01-20T07:41:10;2.70;80.70
52575;DHT22;38468;48.114;-1.684;2023-01-20T07:43:15;2.60;80.40
52575;DHT22;38468;48.114;-1.684;2023-01-20T07:45:16;2.60;80.50
52575;DHT22;38468;48.114;-1.684;2023-01-20T07:47:16;2.40;80.50
52575;DHT22;38468;48.114;-1.684;2023-01-20T07:49:17;2.40;80.80
52575;DHT22;38468;48.114;-1.684;2023-01-20T07:51:18;2.30;81.10
52575;DHT22;38468;48.114;-1.684;2023-01-20T07:53:18;2.30;81.10
52575;DHT22;38468;48.114;-1.684;2023-01-20T07:55:19;2.30;81.10
52575;DHT22;38468;48.114;-1.684;2023-01-20T07:57:19;2.30;81.00
52575;DHT22;38468;48.114;-1.684;2023-01-20T07:59:20;2.40;81.00
52575;DHT22;38468;48.114;-1.684;2023-01-20T08:01:24;2.40;80.80
52575;DHT22;38468;48.114;-1.684;2023-01-20T08:03:24;2.40;80.70
52575;DHT22;38468;48.114;-1.684;2023-01-20T08:05:25;2.40;80.70
52575;DHT22;38468;48.114;-1.684;2023-01-20T08:07:26;2.30;80.70
52575;DHT22;38468;48.114;-1.684;2023-01-20T08:09:27;2.30;80.70
52575;DHT22;38468;48.114;-1.684;2023-01-20T08:11:28;2.40;80.70
52575;DHT22;38468;48.114;-1.684;2023-01-20T08:13:29;2.50;80.70
52575;DHT22;38468;48.114;-1.684;2023-01-20T08:15:30;2.60;80.60
52575;DHT22;38468;48.114;-1.684;2023-01-20T08:17:31;2.50;80.40
52575;DHT22;38468;48.114;-1.684;2023-01-20T08:19:31;2.50;80.40
52575;DHT22;38468;48.114;-1.684;2023-01-20T08:21:32;2.60;80.40
52575;DHT22;38468;48.114;-1.684;2023-01-20T08:23:33;2.70;80.30
52575;DHT22;38468;48.114;-1.684;2023-01-20T08:25:34;2.70;80.20
52575;DHT22;38468;48.114;-1.684;2023-01-20T08:27:35;2.70;80.10
52575;DHT22;38468;48.114;-1.684;2023-01-20T08:29:36;2.70;80.10
52575;DHT22;38468;48.114;-1.684;2023-01-20T08:31:36;2.70;80.10
52575;DHT22;38468;48.114;-1.684;2023-01-20T08:33:38;2.70;80.20
52575;DHT22;38468;48.114;-1.684;2023-01-20T08:35:39;2.80;80.20
52575;DHT22;38468;48.114;-1.684;2023-01-20T08:37:39;2.80;80.20
52575;DHT22;38468;48.114;-1.684;2023-01-20T08:39:40;2.90;80.20
52575;DHT22;38468;48.114;-1.684;2023-01-20T08:41:42;2.90;80.20
52575;DHT22;38468;48.114;-1.684;2023-01-20T08:43:43;2.90;79.70
52575;DHT22;38468;48.114;-1.684;2023-01-20T08:45:44;2.90;79.50
52575;DHT22;38468;48.114;-1.684;2023-01-20T08:47:44;2.80;79.10
52575;DHT22;38468;48.114;-1.684;2023-01-20T08:49:45;2.80;79.00
52575;DHT22;38468;48.114;-1.684;2023-01-20T08:51:46;2.80;79.00
52575;DHT22;38468;48.114;-1.684;2023-01-20T08:53:47;2.70;78.90
52575;DHT22;38468;48.114;-1.684;2023-01-20T08:55:56;2.80;79.10
52575;DHT22;38468;48.114;-1.684;2023-01-20T08:57:57;3.10;79.00
52575;DHT22;38468;48.114;-1.684;2023-01-20T08:59:57;3.90;77.70
52575;DHT22;38468;48.114;-1.684;2023-01-20T09:01:58;4.70;75.70
52575;DHT22;38468;48.114;-1.684;2023-01-20T09:03:59;5.40;73.30
52575;DHT22;38468;48.114;-1.684;2023-01-20T09:06:03;6.70;71.30
52575;DHT22;38468;48.114;-1.684;2023-01-20T09:08:04;7.30;67.70
52575;DHT22;38468;48.114;-1.684;2023-01-20T09:10:05;7.40;65.40
52575;DHT22;38468;48.114;-1.684;2023-01-20T09:12:07;7.40;66.20
52575;DHT22;38468;48.114;-1.684;2023-01-20T09:14:07;7.90;64.70
52575;DHT22;38468;48.114;-1.684;2023-01-20T09:16:11;8.50;63.70
52575;DHT22;38468;48.114;-1.684;2023-01-20T09:18:12;8.40;62.90
52575;DHT22;38468;48.114;-1.684;2023-01-20T09:20:13;9.10;61.50
52575;DHT22;38468;48.114;-1.684;2023-01-20T09:22:13;9.40;59.80
52575;DHT22;38468;48.114;-1.684;2023-01-20T09:24:14;9.20;59.90
52575;DHT22;38468;48.114;-1.684;2023-01-20T09:26:15;8.10;61.90
52575;DHT22;38468;48.114;-1.684;2023-01-20T09:28:15;6.70;64.90
52575;DHT22;38468;48.114;-1.684;2023-01-20T09:30:16;5.90;67.10
52575;DHT22;38468;48.114;-1.684;2023-01-20T09:32:17;5.70;68.60
52575;DHT22;38468;48.114;-1.684;2023-01-20T09:34:18;5.40;69.30
52575;DHT22;38468;48.114;-1.684;2023-01-20T09:36:23;5.20;70.20
52575;DHT22;38468;48.114;-1.684;2023-01-20T09:38:27;5.00;70.60
52575;DHT22;38468;48.114;-1.684;2023-01-20T09:43:21;4.50;71.90
52575;DHT22;38468;48.114;-1.684;2023-01-20T09:45:51;4.20;73.00
52575;DHT22;38468;48.114;-1.684;2023-01-20T09:50:53;4.00;74.90
52575;DHT22;38468;48.114;-1.684;2023-01-20T09:53:41;4.20;75.00
52575;DHT22;38468;48.114;-1.684;2023-01-20T09:55:53;4.10;75.10
52575;DHT22;38468;48.114;-1.684;2023-01-20T09:58:07;4.00;75.20
52575;DHT22;38468;48.114;-1.684;2023-01-20T10:00:17;4.00;74.90
52575;DHT22;38468;48.114;-1.684;2023-01-20T10:02:24;4.00;75.60
52575;DHT22;38468;48.114;-1.684;2023-01-20T10:04:36;4.10;75.70
52575;DHT22;38468;48.114;-1.684;2023-01-20T10:07:06;4.30;75.50
52575;DHT22;38468;48.114;-1.684;2023-01-20T10:11:21;4.20;75.10
52575;DHT22;38468;48.114;-1.684;2023-01-20T10:15:35;4.30;75.30
52575;DHT22;38468;48.114;-1.684;2023-01-20T10:17:41;4.40;75.40
52575;DHT22;38468;48.114;-1.684;2023-01-20T10:26:14;4.10;75.80
52575;DHT22;38468;48.114;-1.684;2023-01-20T10:28:27;4.00;76.00
52575;DHT22;38468;48.114;-1.684;2023-01-20T10:30:34;4.00;76.50
52575;DHT22;38468;48.114;-1.684;2023-01-20T10:32:41;4.10;76.50
52575;DHT22;38468;48.114;-1.684;2023-01-20T10:34:46;4.10;76.30
52575;DHT22;38468;48.114;-1.684;2023-01-20T10:37:07;4.20;76.50
52575;DHT22;38468;48.114;-1.684;2023-01-20T10:39:29;4.40;76.50
52575;DHT22;38468;48.114;-1.684;2023-01-20T10:41:54;4.40;75.80
52575;DHT22;38468;48.114;-1.684;2023-01-20T10:43:57;4.40;75.10
52575;DHT22;38468;48.114;-1.684;2023-01-20T10:46:37;4.40;75.30
52575;DHT22;38468;48.114;-1.684;2023-01-20T10:52:10;4.60;75.80
52575;DHT22;38468;48.114;-1.684;2023-01-20T10:58:36;4.90;76.30
52575;DHT22;38468;48.114;-1.684;2023-01-20T11:00:38;4.80;76.10
52575;DHT22;38468;48.114;-1.684;2023-01-20T11:02:41;4.90;76.00
52575;DHT22;38468;48.114;-1.684;2023-01-20T11:04:41;4.90;75.80
52575;DHT22;38468;48.114;-1.684;2023-01-20T11:06:43;4.80;75.50
52575;DHT22;38468;48.114;-1.684;2023-01-20T11:08:45;4.70;75.30
52575;DHT22;38468;48.114;-1.684;2023-01-20T11:10:49;4.50;75.20
52575;DHT22;38468;48.114;-1.684;2023-01-20T11:12:56;4.50;75.70
52575;DHT22;38468;48.114;-1.684;2023-01-20T11:14:59;4.60;75.50
52575;DHT22;38468;48.114;-1.684;2023-01-20T11:17:06;4.70;75.30
52575;DHT22;38468;48.114;-1.684;2023-01-20T11:19:07;4.70;74.80
52575;DHT22;38468;48.114;-1.684;2023-01-20T11:21:11;4.70;75.10
52575;DHT22;38468;48.114;-1.684;2023-01-20T11:23:45;4.70;75.10
52575;DHT22;38468;48.114;-1.684;2023-01-20T11:25:55;4.70;75.10
52575;DHT22;38468;48.114;-1.684;2023-01-20T11:27:56;4.80;75.00
52575;DHT22;38468;48.114;-1.684;2023-01-20T11:30:04;4.80;74.70
52575;DHT22;38468;48.114;-1.684;2023-01-20T11:32:43;4.90;74.70
52575;DHT22;38468;48.114;-1.684;2023-01-20T11:34:48;4.90;74.60
52575;DHT22;38468;48.114;-1.684;2023-01-20T11:36:50;4.90;74.30
52575;DHT22;38468;48.114;-1.684;2023-01-20T11:38:52;4.90;74.60
52575;DHT22;38468;48.114;-1.684;2023-01-20T11:40:54;4.90;74.80
52575;DHT22;38468;48.114;-1.684;2023-01-20T11:42:56;4.90;74.20
52575;DHT22;38468;48.114;-1.684;2023-01-20T11:44:59;4.90;73.90
52575;DHT22;38468;48.114;-1.684;2023-01-20T11:49:24;5.00;74.00
52575;DHT22;38468;48.114;-1.684;2023-01-20T11:51:24;5.10;73.80
52575;DHT22;38468;48.114;-1.684;2023-01-20T11:55:27;5.20;74.40
52575;DHT22;38468;48.114;-1.684;2023-01-20T11:57:28;5.20;74.10
52575;DHT22;38468;48.114;-1.684;2023-01-20T11:59:33;5.20;74.20
52575;DHT22;38468;48.114;-1.684;2023-01-20T12:01:58;5.20;74.30
52575;DHT22;38468;48.114;-1.684;2023-01-20T12:06:23;5.10;74.40
52575;DHT22;38468;48.114;-1.684;2023-01-20T12:08:29;5.20;74.80
52575;DHT22;38468;48.114;-1.684;2023-01-20T12:10:34;5.30;74.80
52575;DHT22;38468;48.114;-1.684;2023-01-20T12:12:39;5.40;74.90
52575;DHT22;38468;48.114;-1.684;2023-01-20T12:14:59;5.40;74.70
52575;DHT22;38468;48.114;-1.684;2023-01-20T12:19:16;5.60;74.70
52575;DHT22;38468;48.114;-1.684;2023-01-20T12:21:19;5.70;74.80
52575;DHT22;38468;48.114;-1.684;2023-01-20T12:23:35;5.90;74.70
52575;DHT22;38468;48.114;-1.684;2023-01-20T12:27:54;6.20;74.70
52575;DHT22;38468;48.114;-1.684;2023-01-20T12:29:58;6.40;74.40
52575;DHT22;38468;48.114;-1.684;2023-01-20T12:32:02;6.40;74.00
52575;DHT22;38468;48.114;-1.684;2023-01-20T12:34:11;6.50;73.30
52575;DHT22;38468;48.114;-1.684;2023-01-20T12:41:23;5.90;73.30
52575;DHT22;38468;48.114;-1.684;2023-01-20T13:06:11;7.30;71.10
52575;DHT22;38468;48.114;-1.684;2023-01-20T13:08:33;7.20;71.00
52575;DHT22;38468;48.114;-1.684;2023-01-20T13:19:32;7.00;71.20
52575;DHT22;38468;48.114;-1.684;2023-01-20T13:21:33;7.10;71.60
52575;DHT22;38468;48.114;-1.684;2023-01-20T13:23:35;7.20;70.90
52575;DHT22;38468;48.114;-1.684;2023-01-20T13:25:38;7.20;71.40
52575;DHT22;38468;48.114;-1.684;2023-01-20T13:27:40;7.30;71.10
52575;DHT22;38468;48.114;-1.684;2023-01-20T13:29:52;7.30;70.80
52575;DHT22;38468;48.114;-1.684;2023-01-20T13:31:53;7.20;70.40
52575;DHT22;38468;48.114;-1.684;2023-01-20T13:33:53;7.20;70.10
52575;DHT22;38468;48.114;-1.684;2023-01-20T13:36:21;7.10;70.30
52575;DHT22;38468;48.114;-1.684;2023-01-20T13:38:27;6.80;69.90
52575;DHT22;38468;48.114;-1.684;2023-01-20T13:44:38;6.90;70.60
52575;DHT22;38468;48.114;-1.684;2023-01-20T13:46:43;7.00;71.10
52575;DHT22;38468;48.114;-1.684;2023-01-20T13:49:22;7.10;70.40
52575;DHT22;38468;48.114;-1.684;2023-01-20T13:53:27;7.30;70.00
52575;DHT22;38468;48.114;-1.684;2023-01-20T13:57:41;7.80;69.60
52575;DHT22;38468;48.114;-1.684;2023-01-20T13:59:41;8.10;69.40
52575;DHT22;38468;48.114;-1.684;2023-01-20T14:01:42;8.40;68.20
52575;DHT22;38468;48.114;-1.684;2023-01-20T14:03:43;8.70;68.30
52575;DHT22;38468;48.114;-1.684;2023-01-20T14:05:51;9.00;66.50
52575;DHT22;38468;48.114;-1.684;2023-01-20T14:07:52;9.80;66.40
52575;DHT22;38468;48.114;-1.684;2023-01-20T14:09:54;10.80;63.90
52575;DHT22;38468;48.114;-1.684;2023-01-20T14:11:56;11.60;63.00
52575;DHT22;38468;48.114;-1.684;2023-01-20T14:13:59;12.20;58.80
52575;DHT22;38468;48.114;-1.684;2023-01-20T14:16:01;12.40;58.40
52575;DHT22;38468;48.114;-1.684;2023-01-20T14:18:03;12.80;57.20
52575;DHT22;38468;48.114;-1.684;2023-01-20T14:20:18;13.10;56.20
52575;DHT22;38468;48.114;-1.684;2023-01-20T14:22:28;13.50;55.00
52575;DHT22;38468;48.114;-1.684;2023-01-20T14:24:32;13.90;53.30
52575;DHT22;38468;48.114;-1.684;2023-01-20T14:26:33;14.10;53.40
52575;DHT22;38468;48.114;-1.684;2023-01-20T14:28:43;14.10;50.10
52575;DHT22;38468;48.114;-1.684;2023-01-20T14:30:44;14.40;50.40
52575;DHT22;38468;48.114;-1.684;2023-01-20T14:32:45;14.10;50.10
52575;DHT22;38468;48.114;-1.684;2023-01-20T14:34:46;13.00;50.10
52575;DHT22;38468;48.114;-1.684;2023-01-20T14:36:47;12.70;50.40
52575;DHT22;38468;48.114;-1.684;2023-01-20T14:38:53;12.00;52.20
52575;DHT22;38468;48.114;-1.684;2023-01-20T14:40:56;11.40;53.80
52575;DHT22;38468;48.114;-1.684;2023-01-20T14:42:58;10.90;53.70